Time;durP1;ratioP1;P1;durP2;ratioP2;P2;SDS_P1;SDS_P2;PMS_P1;PMS_P2;Temp;Humidity;BMP_temperature;BMP_pressure;BME280_temperature;BME280_humidity;BME280_pressure;Samples;Min_cycle;Max_cycle;Signal;HPM_P1;HPM_P2
2022/02/04 00:20:39;;;;;;;2.22;2.10;;;;;;;;;;6253511;23;20038;-79
2022/02/04 00:25:44;;;;;;;5.20;4.78;;;;;;;;;;6251560;23;20011;-79
2022/02/04 00:28:24;;;;;;;3.60;3.05;;;;;;;;;;6225582;23;20016;-79
2022/02/04 00:31:04;;;;;;;2.30;2.20;;;;;;;;;;6253951;23;19988;-78
2022/02/04 00:33:32;;;;;;;5.50;5.03;;;;;;;;;;6208296;23;20000;-79
2022/02/04 00:36:07;;;;;;;2.70;2.58;;;;;;;;;;6226608;23;19992;-79
2022/02/04 00:38:37;;;;;;;2.78;2.63;;;;;;;;;;6226296;23;20019;-80
2022/02/04 00:41:09;;;;;;;3.85;3.55;;;;;;;;;;6200433;23;19999;-80
2022/02/04 00:43:37;;;;;;;6.75;4.53;;;;;;;;;;6253126;23;20429;-80
2022/02/04 00:46:12;;;;;;;1.52;1.42;;;;;;;;;;6252111;23;20002;-79
2022/02/04 00:51:23;;;;;;;6.85;6.25;;;;;;;;;;6248138;23;20016;-74
2022/02/04 00:56:50;;;;;;;6.15;5.63;;;;;;;;;;6248379;23;20074;-74
2022/02/04 01:13:16;;;;;;;2.97;2.78;;;;;;;;;;6221739;23;19992;-73
2022/02/04 01:26:00;;;;;;;9.02;6.68;;;;;;;;;;6222135;23;19996;-74
2022/02/04 01:26:57;;;;;;;2.40;2.10;;;;;;;;;;6220319;23;20071;-73
2022/02/04 01:29:27;;;;;;;9.20;4.45;;;;;;;;;;6195809;23;20000;-73
2022/02/04 01:31:53;;;;;;;4.88;4.47;;;;;;;;;;6220442;23;20386;-74
2022/02/04 01:34:20;;;;;;;1.67;1.58;;;;;;;;;;6222640;23;20003;-74
2022/02/04 01:36:46;;;;;;;4.38;4.03;;;;;;;;;;6200026;23;19992;-73
2022/02/04 01:39:12;;;;;;;5.25;4.88;;;;;;;;;;6248244;23;20003;-73
2022/02/04 01:41:39;;;;;;;7.10;6.47;;;;;;;;;;6199328;23;20004;-73
2022/02/04 01:44:25;;;;;;;3.45;3.22;;;;;;;;;;6223789;23;20000;-73
2022/02/04 01:46:54;;;;;;;4.68;4.28;;;;;;;;;;6200739;23;20454;-74
2022/02/04 01:49:22;;;;;;;3.25;3.05;;;;;;;;;;6223086;23;20004;-73
2022/02/04 01:51:49;;;;;;;2.88;2.38;;;;;;;;;;6223223;23;19989;-74
2022/02/04 01:54:15;;;;;;;4.68;3.80;;;;;;;;;;6196447;23;20007;-74
2022/02/04 01:56:42;;;;;;;2.05;1.95;;;;;;;;;;6221383;23;19996;-73
2022/02/04 01:59:08;;;;;;;2.92;2.78;;;;;;;;;;6197126;23;20015;-73
2022/02/04 02:01:35;;;;;;;0.82;0.82;;;;;;;;;;6223994;23;19996;-74
2022/02/04 02:04:04;;;;;;;3.38;3.13;;;;;;;;;;6250059;23;19992;-74
2022/02/04 02:06:55;;;;;;;0.95;0.95;;;;;;;;;;6196964;23;20012;-73
2022/02/04 02:09:25;;;;;;;;;;;;;;;;;;6197697;23;20043;-74
2022/02/04 02:11:57;;;;;;;2.00;1.90;;;;;;;;;;6197599;23;19931;-74
2022/02/04 02:14:26;;;;;;;4.88;4.50;;;;;;;;;;6197567;23;20324;-74
2022/02/04 02:33:58;;;;;;;1.83;1.73;;;;;;;;;;6222524;23;20010;-74
2022/02/04 02:56:21;;;;;;;;;;;;;;;;;;6167644;23;20095;-74
2022/02/04 03:01:32;;;;;;;6.47;4.38;;;;;;;;;;6238919;23;20060;-80
2022/02/04 03:04:03;;;;;;;10.63;6.28;;;;;;;;;;6223974;23;20019;-80
2022/02/04 03:06:33;;;;;;;5.15;3.53;;;;;;;;;;6221328;23;20001;-74
2022/02/04 03:09:05;;;;;;;15.25;6.90;;;;;;;;;;6189775;23;20372;-74
2022/02/04 03:11:33;;;;;;;13.25;7.13;;;;;;;;;;6216031;23;20079;-74
2022/02/04 03:14:00;;;;;;;5.38;5.00;;;;;;;;;;6191770;23;19996;-74
2022/02/04 03:16:28;;;;;;;3.10;2.92;;;;;;;;;;6192390;23;20405;-74
2022/02/04 03:18:58;;;;;;;12.23;5.60;;;;;;;;;;6190029;23;20481;-74
2022/02/04 03:21:39;;;;;;;3.20;2.88;;;;;;;;;;6186808;23;20003;-74
2022/02/04 03:24:26;;;;;;;3.88;3.58;;;;;;;;;;6174472;23;20088;-74
2022/02/04 03:27:02;;;;;;;12.50;5.82;;;;;;;;;;6189657;23;20000;-73
2022/02/04 03:30:01;;;;;;;3.97;3.75;;;;;;;;;;6173499;23;20007;-74
2022/02/04 03:32:28;;;;;;;6.57;5.93;;;;;;;;;;6175545;23;20000;-74
2022/02/04 03:35:19;;;;;;;4.70;4.30;;;;;;;;;;6048936;23;20049;-74
2022/02/04 03:37:51;;;;;;;2.85;2.67;;;;;;;;;;6219051;23;19992;-75
2022/02/04 03:40:17;;;;;;;10.30;6.93;;;;;;;;;;6217003;23;20314;-74
2022/02/04 03:42:47;;;;;;;6.20;5.60;;;;;;;;;;6220872;23;19996;-74
2022/02/04 03:45:13;;;;;;;3.38;3.17;;;;;;;;;;6220835;23;20008;-74
2022/02/04 03:47:40;;;;;;;5.70;5.22;;;;;;;;;;6247289;23;19996;-74
2022/02/04 03:50:07;;;;;;;14.70;1.75;;;;;;;;;;6196497;23;19996;-74
2022/02/04 03:52:33;;;;;;;6.13;5.55;;;;;;;;;;6221281;23;20287;-74
2022/02/04 03:55:00;;;;;;;4.50;4.18;;;;;;;;;;6225830;23;20004;-74
2022/02/04 03:57:26;;;;;;;2.05;1.95;;;;;;;;;;6222559;23;19996;-74
2022/02/04 03:59:53;;;;;;;3.13;2.85;;;;;;;;;;6196448;23;20003;-75
2022/02/04 04:02:19;;;;;;;3.80;3.55;;;;;;;;;;6221488;23;20314;-74
2022/02/04 04:04:46;;;;;;;11.80;4.80;;;;;;;;;;6219780;23;20087;-75
2022/02/04 04:07:13;;;;;;;5.32;2.90;;;;;;;;;;6247416;23;20411;-74
2022/02/04 04:09:49;;;;;;;36.13;6.10;;;;;;;;;;6217563;23;20655;-74
2022/02/04 04:12:19;;;;;;;4.00;3.72;;;;;;;;;;6191187;23;20422;-74
2022/02/04 04:15:09;;;;;;;10.70;7.75;;;;;;;;;;6209735;23;20393;-74
2022/02/04 04:18:00;;;;;;;4.30;4.03;;;;;;;;;;6149529;23;20019;-76
2022/02/04 04:20:27;;;;;;;5.30;4.72;;;;;;;;;;6247644;23;19996;-74
2022/02/04 04:22:54;;;;;;;7.63;5.93;;;;;;;;;;6247534;23;19996;-75
2022/02/04 04:25:21;;;;;;;13.73;5.85;;;;;;;;;;6219216;23;20008;-73
2022/02/04 04:27:47;;;;;;;3.25;2.97;;;;;;;;;;6246913;23;19992;-75
2022/02/04 04:30:14;;;;;;;5.38;4.93;;;;;;;;;;6247413;23;19992;-73
2022/02/04 04:32:41;;;;;;;8.63;6.53;;;;;;;;;;6246694;23;19992;-74
2022/02/04 04:35:10;;;;;;;7.57;5.47;;;;;;;;;;6219834;23;20283;-75
2022/02/04 04:37:43;;;;;;;8.70;6.10;;;;;;;;;;6222221;23;19992;-74
2022/02/04 05:29:34;;;;;;;6.22;5.68;;;;;;;;;;6211382;23;20114;-76
2022/02/04 05:32:00;;;;;;;13.55;7.18;;;;;;;;;;6222103;23;20026;-76
2022/02/04 05:34:27;;;;;;;12.10;9.48;;;;;;;;;;6221221;23;20257;-76
2022/02/04 05:37:06;;;;;;;12.20;7.35;;;;;;;;;;6222988;23;19996;-74
2022/02/04 05:40:00;;;;;;;7.20;4.95;;;;;;;;;;6253108;23;20421;-76
2022/02/04 05:42:24;;;;;;;13.05;5.68;;;;;;;;;;6246747;23;20055;-76
2022/02/04 05:44:57;;;;;;;4.78;4.45;;;;;;;;;;6199809;23;20374;-76
2022/02/04 05:47:24;;;;;;;4.78;3.25;;;;;;;;;;6227880;23;19996;-75
2022/02/04 05:50:08;;;;;;;2.88;2.67;;;;;;;;;;6219251;23;20045;-75
2022/02/04 05:58:14;;;;;;;7.93;6.90;;;;;;;;;;6245888;23;19992;-74
2022/02/04 06:00:48;;;;;;;7.03;4.65;;;;;;;;;;6195612;23;20314;-75
2022/02/04 06:09:05;;;;;;;9.68;8.15;;;;;;;;;;6247276;23;20019;-75
2022/02/04 06:22:51;;;;;;;9.23;6.50;;;;;;;;;;6248992;23;20070;-75
2022/02/04 06:25:18;;;;;;;5.93;5.35;;;;;;;;;;6221104;23;20069;-75
2022/02/04 06:27:44;;;;;;;7.28;6.15;;;;;;;;;;6249740;23;20111;-74
2022/02/04 06:30:11;;;;;;;3.25;3.05;;;;;;;;;;6219165;23;19992;-75
2022/02/04 06:32:37;;;;;;;6.00;5.50;;;;;;;;;;6245603;23;20010;-74
2022/02/04 06:35:08;;;;;;;9.80;8.82;;;;;;;;;;6246204;23;20070;-75
2022/02/04 06:37:34;;;;;;;;;;;;;;;;;;6219586;23;20007;-78
2022/02/04 06:40:01;;;;;;;18.58;7.88;;;;;;;;;;6222639;23;20350;-75
2022/02/04 06:42:29;;;;;;;10.85;5.35;;;;;;;;;;6220227;23;19996;-76
2022/02/04 06:44:56;;;;;;;8.70;4.40;;;;;;;;;;6219316;23;20410;-75
2022/02/04 06:47:22;;;;;;;8.75;7.90;;;;;;;;;;6194682;23;20003;-76
2022/02/04 06:49:48;;;;;;;5.25;4.72;;;;;;;;;;6194375;23;20330;-74
2022/02/04 06:52:15;;;;;;;3.90;3.60;;;;;;;;;;6194078;23;20349;-75
2022/02/04 06:54:42;;;;;;;5.35;4.95;;;;;;;;;;6195239;23;20318;-75
2022/02/04 06:57:08;;;;;;;7.93;7.13;;;;;;;;;;6247494;23;20066;-76
2022/02/04 06:59:41;;;;;;;3.78;3.53;;;;;;;;;;6246931;23;20026;-73
2022/02/04 07:02:07;;;;;;;5.55;5.05;;;;;;;;;;6220038;23;19993;-75
2022/02/04 07:04:35;;;;;;;8.18;7.45;;;;;;;;;;6247788;23;20027;-75
2022/02/04 07:07:02;;;;;;;7.63;3.05;;;;;;;;;;6218661;23;20035;-74
2022/02/04 07:14:51;;;;;;;3.95;3.65;;;;;;;;;;6223568;23;20003;-74
2022/02/04 07:17:30;;;;;;;;;;;;;;;;;;6221792;23;20054;-76
2022/02/04 07:19:56;;;;;;;3.45;3.22;;;;;;;;;;6246657;23;19899;-75
2022/02/04 07:22:23;;;;;;;8.10;4.60;;;;;;;;;;6196255;23;20015;-75
2022/02/04 07:24:53;;;;;;;4.18;3.90;;;;;;;;;;6221220;23;20015;-75
2022/02/04 07:27:20;;;;;;;5.40;4.88;;;;;;;;;;6247139;23;20008;-74
2022/02/04 07:29:48;;;;;;;4.22;3.83;;;;;;;;;;6197669;23;19998;-74
2022/02/04 07:32:30;;;;;;;3.83;3.53;;;;;;;;;;6196944;23;20030;-75
2022/02/04 07:43:10;;;;;;;5.32;3.85;;;;;;;;;;6246990;23;19996;-75
2022/02/04 07:45:37;;;;;;;4.05;3.78;;;;;;;;;;6246334;23;20015;-76
2022/02/04 07:48:04;;;;;;;11.93;5.25;;;;;;;;;;6197184;23;20104;-74
2022/02/04 07:50:30;;;;;;;6.82;5.82;;;;;;;;;;6246948;23;19992;-74
2022/02/04 07:52:58;;;;;;;5.70;5.15;;;;;;;;;;6221802;23;20120;-75
2022/02/04 07:55:25;;;;;;;3.33;3.03;;;;;;;;;;6247257;23;20030;-75
2022/02/04 07:57:52;;;;;;;5.88;3.67;;;;;;;;;;6247857;23;20000;-77
2022/02/04 08:00:19;;;;;;;3.25;2.97;;;;;;;;;;6221155;23;20299;-76
2022/02/04 08:02:46;;;;;;;4.80;4.40;;;;;;;;;;6221263;23;19992;-76
2022/02/04 08:05:16;;;;;;;6.25;5.30;;;;;;;;;;6220958;23;20170;-74
2022/02/04 08:26:32;;;;;;;4.82;3.53;;;;;;;;;;6249112;23;20001;-75
2022/02/04 08:29:29;;;;;;;4.88;4.53;;;;;;;;;;6197132;23;20000;-75
2022/02/04 08:32:11;;;;;;;2.75;2.53;;;;;;;;;;6222704;23;20000;-75
2022/02/04 08:34:56;;;;;;;1.25;1.25;;;;;;;;;;6222218;23;19996;-75
2022/02/04 08:37:43;;;;;;;3.55;2.17;;;;;;;;;;6249751;23;20003;-74
2022/02/04 08:51:35;;;;;;;3.40;3.17;;;;;;;;;;6248840;23;20019;-76
2022/02/04 08:54:24;;;;;;;6.18;2.63;;;;;;;;;;6245898;23;20003;-75
2022/02/04 08:57:03;;;;;;;2.30;2.15;;;;;;;;;;6195726;23;20391;-75
2022/02/04 09:02:04;;;;;;;6.22;5.65;;;;;;;;;;6224344;23;20019;-75
2022/02/04 09:04:45;;;;;;;3.65;3.33;;;;;;;;;;6202056;23;20349;-75
2022/02/04 09:07:14;;;;;;;3.88;3.10;;;;;;;;;;6221770;23;20079;-75
2022/02/04 09:09:50;;;;;;;1.70;1.63;;;;;;;;;;6221987;23;19996;-75
2022/02/04 09:16:55;;;;;;;1.65;1.40;;;;;;;;;;6198306;23;20000;-75
2022/02/04 09:20:42;;;;;;;5.15;2.72;;;;;;;;;;6222489;23;20007;-75
2022/02/04 09:23:09;;;;;;;2.55;2.35;;;;;;;;;;6222315;23;20075;-74
2022/02/04 09:25:35;;;;;;;3.65;3.40;;;;;;;;;;6247926;23;20004;-74
2022/02/04 09:28:02;;;;;;;5.85;2.55;;;;;;;;;;6197198;23;20046;-74
2022/02/04 09:30:31;;;;;;;1.85;1.75;;;;;;;;;;6222071;23;20130;-75
2022/02/04 09:32:57;;;;;;;13.05;4.88;;;;;;;;;;6223342;23;20063;-75
2022/02/04 09:35:24;;;;;;;3.63;3.30;;;;;;;;;;6197138;23;20007;-74
2022/02/04 09:37:52;;;;;;;3.08;2.85;;;;;;;;;;6222884;23;19992;-75
2022/02/04 09:40:18;;;;;;;17.67;6.70;;;;;;;;;;6249198;23;20000;-75
2022/02/04 09:42:45;;;;;;;22.00;3.92;;;;;;;;;;6197205;23;20015;-74
2022/02/04 09:45:13;;;;;;;1.85;1.75;;;;;;;;;;6222271;23;20011;-75
2022/02/04 09:47:42;;;;;;;2.20;1.88;;;;;;;;;;6222974;23;19993;-75
2022/02/04 09:50:13;;;;;;;6.13;5.57;;;;;;;;;;6249007;23;20003;-75
2022/02/04 10:07:20;;;;;;;3.05;2.85;;;;;;;;;;6250349;23;20421;-75
2022/02/04 10:18:10;;;;;;;3.00;2.80;;;;;;;;;;6224487;23;20000;-75
2022/02/04 10:20:37;;;;;;;;;;;;;;;;;;6200926;23;19996;-74
2022/02/04 10:23:03;;;;;;;0.77;0.77;;;;;;;;;;6224952;23;19900;-75
2022/02/04 10:25:31;;;;;;;2.58;2.45;;;;;;;;;;6199645;23;20015;-75
2022/02/04 10:28:00;;;;;;;1.67;1.58;;;;;;;;;;6226523;23;19993;-75
2022/02/04 10:30:31;;;;;;;2.92;2.53;;;;;;;;;;6199256;23;20314;-75
2022/02/04 10:32:59;;;;;;;1.98;1.88;;;;;;;;;;6222633;23;20075;-74
2022/02/04 10:35:29;;;;;;;0.73;0.73;;;;;;;;;;6222455;23;19992;-74
2022/02/04 10:38:07;;;;;;;3.00;2.78;;;;;;;;;;6222634;23;20256;-75
2022/02/04 10:52:24;;;;;;;2.10;1.98;;;;;;;;;;6229503;23;20382;-74
2022/02/04 10:57:42;;;;;;;0.85;0.85;;;;;;;;;;6249589;23;20000;-74
2022/02/04 11:00:21;;;;;;;1.05;1.05;;;;;;;;;;6222473;23;19998;-75
2022/02/04 11:05:20;;;;;;;3.30;3.00;;;;;;;;;;6222022;23;20015;-74
2022/02/04 11:35:28;;;;;;;5.65;4.32;;;;;;;;;;6222135;23;20007;-75
2022/02/04 11:44:12;;;;;;;3.13;2.88;;;;;;;;;;6248676;23;19996;-75
2022/02/04 11:52:25;;;;;;;0.82;0.82;;;;;;;;;;6251731;23;19993;-75
2022/02/04 11:54:56;;;;;;;3.00;2.80;;;;;;;;;;6225496;23;20000;-75
2022/02/04 11:57:26;;;;;;;3.00;2.58;;;;;;;;;;6200363;23;20000;-75
2022/02/04 11:59:54;;;;;;;0.50;0.50;;;;;;;;;;6225490;23;20014;-74
2022/02/04 12:02:26;;;;;;;1.92;1.75;;;;;;;;;;6201098;23;20313;-75
2022/02/04 12:05:05;;;;;;;1.10;1.10;;;;;;;;;;6252715;23;20011;-74
2022/02/04 12:07:35;;;;;;;9.05;2.65;;;;;;;;;;6226046;23;20019;-75
2022/02/04 12:10:02;;;;;;;2.10;2.00;;;;;;;;;;6253288;23;20022;-74
2022/02/04 12:12:47;;;;;;;1.38;1.27;;;;;;;;;;6251921;23;19992;-75
2022/02/04 12:15:28;;;;;;;0.90;0.90;;;;;;;;;;6224169;23;19996;-73
2022/02/04 12:17:55;;;;;;;14.57;3.75;;;;;;;;;;6224263;23;19992;-73
2022/02/04 12:20:41;;;;;;;1.85;1.67;;;;;;;;;;6249900;23;20317;-73
2022/02/04 12:23:07;;;;;;;0.98;0.93;;;;;;;;;;6240123;23;19996;-73
2022/02/04 12:25:52;;;;;;;2.25;2.05;;;;;;;;;;6223744;23;20004;-73
2022/02/04 12:28:37;;;;;;;2.53;2.33;;;;;;;;;;6251591;23;20019;-74
2022/02/04 12:31:07;;;;;;;0.38;0.38;;;;;;;;;;6198878;23;20417;-73
2022/02/04 12:33:44;;;;;;;1.95;1.85;;;;;;;;;;6224291;23;19992;-73
2022/02/04 12:36:18;;;;;;;3.90;2.75;;;;;;;;;;6223063;23;20020;-73
2022/02/04 12:38:46;;;;;;;0.93;0.88;;;;;;;;;;6223732;23;19996;-73
2022/02/04 12:41:22;;;;;;;1.45;1.35;;;;;;;;;;6222906;23;19992;-73
2022/02/04 12:43:49;;;;;;;0.28;0.28;;;;;;;;;;6223185;23;19992;-73
2022/02/04 12:46:16;;;;;;;2.30;2.20;;;;;;;;;;6223536;23;20079;-73
2022/02/04 12:48:54;;;;;;;4.25;3.80;;;;;;;;;;6223763;23;20050;-73
2022/02/04 12:51:30;;;;;;;0.88;0.88;;;;;;;;;;6198552;23;19996;-74
2022/02/04 12:53:58;;;;;;;1.10;1.08;;;;;;;;;;6223217;23;19992;-73
2022/02/04 12:56:37;;;;;;;3.90;2.33;;;;;;;;;;6250473;23;20012;-73
2022/02/04 13:02:22;;;;;;;3.95;2.72;;;;;;;;;;6223199;23;20007;-73
2022/02/04 13:10:15;;;;;;;4.82;4.13;;;;;;;;;;6223101;23;20433;-73
2022/02/04 13:13:01;;;;;;;1.42;1.33;;;;;;;;;;6223462;23;19996;-73
2022/02/04 13:15:29;;;;;;;1.38;1.27;;;;;;;;;;6223003;23;20030;-73
2022/02/04 13:17:56;;;;;;;4.13;3.70;;;;;;;;;;6250278;23;19996;-73
2022/02/04 13:20:23;;;;;;;2.22;2.03;;;;;;;;;;6223579;23;19998;-73
2022/02/04 13:22:51;;;;;;;2.42;2.22;;;;;;;;;;6222742;23;20315;-73
2022/02/04 13:25:24;;;;;;;1.50;1.40;;;;;;;;;;6197882;23;20014;-73
2022/02/04 13:28:11;;;;;;;0.85;0.85;;;;;;;;;;6198489;23;20007;-73
2022/02/04 13:30:40;;;;;;;0.63;0.63;;;;;;;;;;6250530;23;19992;-73
2022/02/04 13:33:36;;;;;;;2.05;1.85;;;;;;;;;;6202159;23;20008;-73
2022/02/04 13:47:53;;;;;;;1.75;1.65;;;;;;;;;;6250130;23;20004;-73
2022/02/04 13:50:20;;;;;;;1.35;1.30;;;;;;;;;;6244403;23;20027;-73
2022/02/04 13:52:58;;;;;;;3.13;2.55;;;;;;;;;;6249392;23;20391;-73
2022/02/04 13:56:26;;;;;;;1.85;1.60;;;;;;;;;;6249671;23;19995;-73
2022/02/04 14:03:22;;;;;;;1.65;1.55;;;;;;;;;;6249134;23;19996;-73
2022/02/04 14:05:59;;;;;;;4.55;2.53;;;;;;;;;;6197548;23;20038;-74
2022/02/04 14:08:31;;;;;;;2.00;1.85;;;;;;;;;;6198075;23;20405;-74
2022/02/04 14:11:00;;;;;;;2.03;1.90;;;;;;;;;;6197631;23;20398;-74
2022/02/04 14:13:28;;;;;;;1.35;1.25;;;;;;;;;;6198820;23;19992;-73
2022/02/04 14:15:58;;;;;;;2.13;2.03;;;;;;;;;;6198367;23;20000;-73
2022/02/04 14:18:28;;;;;;;3.40;3.17;;;;;;;;;;6250651;23;20046;-73
2022/02/04 14:20:59;;;;;;;0.70;0.70;;;;;;;;;;6221937;23;20012;-73
2022/02/04 14:23:26;;;;;;;5.47;2.80;;;;;;;;;;6223842;23;20011;-73
2022/02/04 14:26:10;;;;;;;2.80;2.58;;;;;;;;;;6251928;23;20085;-73
2022/02/04 14:28:52;;;;;;;3.53;2.90;;;;;;;;;;6225356;23;19992;-73
2022/02/04 14:34:41;;;;;;;1.75;1.65;;;;;;;;;;6251414;23;19992;-73
2022/02/04 14:50:58;;;;;;;4.10;3.80;;;;;;;;;;6224737;23;20100;-73
2022/02/04 14:59:17;;;;;;;0.50;0.50;;;;;;;;;;6257648;23;19999;-73
2022/02/04 15:01:50;;;;;;;0.90;0.90;;;;;;;;;;6248533;23;20000;-73
2022/02/04 15:04:26;;;;;;;6.95;3.15;;;;;;;;;;6222123;23;20354;-73
2022/02/04 15:07:00;;;;;;;2.13;1.50;;;;;;;;;;6221627;23;20295;-73
2022/02/04 15:09:26;;;;;;;9.23;1.75;;;;;;;;;;6222755;23;20135;-73
2022/02/04 15:11:56;;;;;;;2.78;2.63;;;;;;;;;;6222381;23;20390;-73
2022/02/04 15:14:22;;;;;;;7.15;3.53;;;;;;;;;;6221455;23;20310;-73
2022/02/04 15:16:48;;;;;;;13.45;5.88;;;;;;;;;;6195738;23;19996;-73
2022/02/04 15:19:14;;;;;;;0.88;0.88;;;;;;;;;;6222454;23;20027;-73
2022/02/04 15:21:45;;;;;;;2.25;2.15;;;;;;;;;;6254058;23;20008;-73
2022/02/04 15:24:12;;;;;;;0.65;0.65;;;;;;;;;;6221911;23;20079;-72
2022/02/04 15:26:38;;;;;;;6.28;3.10;;;;;;;;;;6221508;23;20082;-73
2022/02/04 15:29:08;;;;;;;2.45;2.25;;;;;;;;;;6222338;23;20003;-73
2022/02/04 15:31:43;;;;;;;1.83;1.73;;;;;;;;;;6197781;23;20016;-73
2022/02/04 15:34:10;;;;;;;1.95;1.85;;;;;;;;;;6223506;23;19992;-73
2022/02/04 15:36:44;;;;;;;5.10;1.83;;;;;;;;;;6198182;23;20024;-73
2022/02/04 15:39:21;;;;;;;1.08;1.08;;;;;;;;;;6221791;23;19996;-73
2022/02/04 15:41:48;;;;;;;4.90;4.60;;;;;;;;;;6222185;23;20091;-73
2022/02/04 15:49:29;;;;;;;3.00;2.80;;;;;;;;;;6225653;23;20066;-73
2022/02/04 16:02:42;;;;;;;5.18;4.80;;;;;;;;;;6253461;23;20059;-73
2022/02/04 16:05:10;;;;;;;2.85;2.67;;;;;;;;;;6227767;23;20004;-73
2022/02/04 16:07:40;;;;;;;2.40;2.22;;;;;;;;;;6201501;23;19988;-73
2022/02/04 16:12:58;;;;;;;2.92;2.67;;;;;;;;;;6227812;23;20003;-73
2022/02/04 16:15:39;;;;;;;3.90;2.95;;;;;;;;;;6226974;23;19999;-73
2022/02/04 16:18:14;;;;;;;2.22;2.10;;;;;;;;;;6251243;23;20026;-73
2022/02/04 16:26:35;;;;;;;6.15;5.32;;;;;;;;;;6220628;23;20004;-73
2022/02/04 16:29:00;;;;;;;4.28;3.97;;;;;;;;;;6251725;23;19991;-73
2022/02/04 16:31:26;;;;;;;7.07;6.45;;;;;;;;;;6226257;23;20028;-73
2022/02/04 16:33:53;;;;;;;16.73;7.18;;;;;;;;;;6254489;23;20346;-73
2022/02/04 16:36:22;;;;;;;2.78;2.58;;;;;;;;;;6198487;23;20000;-73
2022/02/04 16:38:53;;;;;;;2.90;2.67;;;;;;;;;;6222867;23;19984;-73
2022/02/04 16:41:25;;;;;;;11.73;5.40;;;;;;;;;;6198648;23;20003;-73
2022/02/04 16:43:51;;;;;;;13.35;4.20;;;;;;;;;;6223882;23;19996;-73
2022/02/04 16:46:17;;;;;;;2.20;2.10;;;;;;;;;;6224181;23;20004;-73
2022/02/04 16:48:44;;;;;;;11.20;6.53;;;;;;;;;;6222793;23;19988;-73
2022/02/04 16:51:10;;;;;;;4.72;4.43;;;;;;;;;;6223742;23;20016;-73
2022/02/04 16:53:36;;;;;;;2.83;2.70;;;;;;;;;;6224008;23;20032;-73
2022/02/04 16:56:03;;;;;;;6.72;5.40;;;;;;;;;;6250761;23;19992;-73
2022/02/04 16:58:29;;;;;;;4.18;3.90;;;;;;;;;;6250287;23;20042;-73
2022/02/04 17:00:56;;;;;;;5.53;5.03;;;;;;;;;;6224515;23;19996;-73
2022/02/04 17:03:22;;;;;;;4.90;4.50;;;;;;;;;;6200263;23;19996;-72
2022/02/04 17:08:22;;;;;;;8.60;5.35;;;;;;;;;;6251290;23;19992;-73
2022/02/04 17:10:51;;;;;;;3.47;3.17;;;;;;;;;;6252397;23;19996;-73
2022/02/04 17:13:22;;;;;;;2.13;2.03;;;;;;;;;;6226664;23;20038;-73
2022/02/04 17:15:49;;;;;;;7.07;5.85;;;;;;;;;;6224966;23;19996;-73
2022/02/04 17:18:15;;;;;;;6.10;4.00;;;;;;;;;;6227333;23;19995;-73
2022/02/04 17:20:42;;;;;;;6.18;4.45;;;;;;;;;;6225159;23;20019;-73
2022/02/04 17:23:11;;;;;;;12.85;6.25;;;;;;;;;;6226207;23;20042;-73
2022/02/04 17:25:39;;;;;;;4.82;4.03;;;;;;;;;;6227300;23;20433;-73
2022/02/04 17:28:06;;;;;;;4.60;4.20;;;;;;;;;;6203823;23;19992;-73
2022/02/04 17:30:32;;;;;;;3.38;3.05;;;;;;;;;;6256548;23;20053;-73
2022/02/04 17:33:03;;;;;;;6.20;5.65;;;;;;;;;;6229424;23;20058;-73
2022/02/04 17:35:29;;;;;;;2.25;2.03;;;;;;;;;;6228643;23;20004;-73
2022/02/04 17:37:58;;;;;;;5.55;5.03;;;;;;;;;;6231405;23;19988;-73
2022/02/04 17:40:25;;;;;;;5.90;4.78;;;;;;;;;;6255893;23;20390;-73
2022/02/04 17:42:52;;;;;;;6.47;5.85;;;;;;;;;;6226017;23;20000;-73
2022/02/04 17:45:21;;;;;;;7.95;7.20;;;;;;;;;;6198838;23;20059;-73
2022/02/04 17:47:53;;;;;;;11.98;4.68;;;;;;;;;;6199297;23;20066;-73
2022/02/04 17:50:27;;;;;;;10.80;7.40;;;;;;;;;;6224288;23;20386;-73
2022/02/04 17:53:00;;;;;;;17.02;5.80;;;;;;;;;;6199312;23;20075;-73
2022/02/04 17:55:30;;;;;;;5.80;4.15;;;;;;;;;;6225917;23;19997;-73
2022/02/04 17:58:09;;;;;;;3.40;3.20;;;;;;;;;;6224523;23;19992;-73
2022/02/04 18:08:28;;;;;;;3.50;3.30;;;;;;;;;;6250067;23;19995;-73
2022/02/04 18:10:55;;;;;;;18.60;11.38;;;;;;;;;;6223790;23;20007;-73
2022/02/04 18:13:22;;;;;;;7.57;7.07;;;;;;;;;;6199603;23;20015;-73
2022/02/04 18:15:48;;;;;;;6.60;5.25;;;;;;;;;;6224918;23;20383;-73
2022/02/04 18:18:15;;;;;;;8.43;6.95;;;;;;;;;;6224931;23;20019;-73
2022/02/04 18:20:42;;;;;;;11.25;8.40;;;;;;;;;;6251134;23;20027;-73
2022/02/04 18:23:08;;;;;;;6.53;5.45;;;;;;;;;;6223912;23;20051;-73
2022/02/04 18:25:34;;;;;;;2.35;2.15;;;;;;;;;;6199347;23;20429;-73
2022/02/04 18:28:01;;;;;;;4.90;4.47;;;;;;;;;;6224195;23;20063;-73
2022/02/04 18:30:34;;;;;;;16.55;5.55;;;;;;;;;;6252930;23;20357;-73
2022/02/04 18:33:01;;;;;;;10.13;5.80;;;;;;;;;;6199891;23;20350;-73
2022/02/04 18:35:27;;;;;;;9.25;7.72;;;;;;;;;;6225692;23;19996;-73
2022/02/04 18:38:10;;;;;;;7.85;7.13;;;;;;;;;;6199411;23;20012;-73
2022/02/04 18:41:05;;;;;;;15.73;7.80;;;;;;;;;;6251195;23;20019;-73
2022/02/04 18:43:52;;;;;;;5.70;5.22;;;;;;;;;;6222986;23;20413;-73
2022/02/04 18:49:15;;;;;;;9.32;5.10;;;;;;;;;;6263734;23;19980;-73
2022/02/04 18:54:40;;;;;;;9.63;7.68;;;;;;;;;;6248736;23;19988;-73
2022/02/04 18:59:30;;;;;;;4.03;3.78;;;;;;;;;;6248724;23;20016;-72
2022/02/04 19:01:56;;;;;;;4.45;4.15;;;;;;;;;;6248577;23;20345;-73
2022/02/04 19:04:38;;;;;;;9.30;8.18;;;;;;;;;;6248786;23;19988;-73
2022/02/04 19:07:11;;;;;;;12.95;8.18;;;;;;;;;;6222080;23;20134;-73
2022/02/04 19:09:39;;;;;;;6.47;5.90;;;;;;;;;;6248798;23;20052;-72
2022/02/04 19:12:12;;;;;;;11.00;9.32;;;;;;;;;;6248594;23;20060;-72
2022/02/04 19:17:35;;;;;;;11.02;7.53;;;;;;;;;;6213120;23;20369;-73
2022/02/04 19:20:11;;;;;;;6.72;6.18;;;;;;;;;;6248682;23;20077;-73
2022/02/04 19:22:40;;;;;;;7.07;5.20;;;;;;;;;;6221117;23;20019;-73
2022/02/04 19:25:11;;;;;;;6.43;5.50;;;;;;;;;;6248337;23;20054;-73
2022/02/04 19:27:37;;;;;;;11.27;8.32;;;;;;;;;;6220987;23;19984;-73
2022/02/04 19:30:09;;;;;;;11.07;8.32;;;;;;;;;;6196590;23;20079;-73
2022/02/04 19:32:35;;;;;;;7.57;6.88;;;;;;;;;;6221618;23;19996;-73
2022/02/04 19:35:01;;;;;;;7.97;7.05;;;;;;;;;;6221306;23;19993;-73
2022/02/04 19:37:27;;;;;;;16.38;10.80;;;;;;;;;;6222506;23;19998;-73
2022/02/04 19:39:54;;;;;;;10.15;6.55;;;;;;;;;;6249374;23;19993;-73
2022/02/04 19:42:27;;;;;;;13.75;9.40;;;;;;;;;;6222150;23;20318;-72
2022/02/04 19:45:01;;;;;;;9.63;6.53;;;;;;;;;;6222305;23;19997;-73
2022/02/04 19:47:31;;;;;;;5.78;4.32;;;;;;;;;;6222052;23;20028;-73
2022/02/04 19:53:03;;;;;;;8.88;8.00;;;;;;;;;;6249806;23;20337;-73
2022/02/04 20:25:18;;;;;;;5.68;5.22;;;;;;;;;;6249685;23;20295;-72
2022/02/04 20:27:44;;;;;;;13.50;9.23;;;;;;;;;;6249634;23;19992;-72
2022/02/04 20:30:11;;;;;;;4.75;4.38;;;;;;;;;;6222935;23;19992;-72
2022/02/04 20:32:38;;;;;;;13.75;10.25;;;;;;;;;;6223042;23;19992;-72
2022/02/04 20:35:05;;;;;;;8.65;5.50;;;;;;;;;;6248762;23;20065;-72
2022/02/04 20:37:31;;;;;;;7.63;6.90;;;;;;;;;;6249649;23;19992;-72
2022/02/04 20:40:11;;;;;;;8.05;6.05;;;;;;;;;;6222308;23;20462;-72
2022/02/04 20:42:37;;;;;;;7.68;6.53;;;;;;;;;;6249623;23;20046;-72
2022/02/04 20:45:03;;;;;;;10.45;6.57;;;;;;;;;;6248739;23;20043;-72
2022/02/04 20:47:31;;;;;;;17.38;11.80;;;;;;;;;;6248884;23;20000;-72
2022/02/04 20:49:57;;;;;;;16.85;10.77;;;;;;;;;;6248899;23;19989;-72
2022/02/04 20:52:25;;;;;;;8.18;6.93;;;;;;;;;;6197462;23;20003;-72
2022/02/04 20:54:51;;;;;;;6.85;6.40;;;;;;;;;;6249248;23;20039;-72
2022/02/04 20:57:17;;;;;;;11.00;9.82;;;;;;;;;;6222315;23;20394;-72
2022/02/04 20:59:45;;;;;;;8.23;4.38;;;;;;;;;;6197829;23;20287;-72
2022/02/04 21:02:12;;;;;;;5.38;4.97;;;;;;;;;;6249663;23;19996;-72
2022/02/04 21:04:40;;;;;;;7.82;7.25;;;;;;;;;;6249577;23;19988;-72
2022/02/04 21:07:12;;;;;;;9.27;8.25;;;;;;;;;;6222403;23;20437;-72
2022/02/04 21:15:07;;;;;;;7.78;6.57;;;;;;;;;;6249895;23;20038;-72
2022/02/04 21:17:41;;;;;;;7.35;6.82;;;;;;;;;;6249217;23;19992;-72
2022/02/04 21:20:08;;;;;;;4.28;3.88;;;;;;;;;;6249392;23;20091;-72
2022/02/04 21:22:35;;;;;;;8.77;8.05;;;;;;;;;;6249621;23;20023;-72
2022/02/04 21:25:01;;;;;;;8.10;7.47;;;;;;;;;;6226215;23;19984;-73
2022/02/04 21:27:29;;;;;;;9.00;8.20;;;;;;;;;;6230459;23;19996;-72
2022/02/04 21:29:55;;;;;;;9.05;8.23;;;;;;;;;;6249322;23;19989;-72
2022/02/04 21:32:21;;;;;;;11.10;5.43;;;;;;;;;;6222656;23;20093;-72
2022/02/04 21:37:32;;;;;;;8.52;7.75;;;;;;;;;;6248456;23;20023;-73
2022/02/04 21:39:58;;;;;;;12.05;10.98;;;;;;;;;;6248259;23;19988;-73
2022/02/04 21:42:27;;;;;;;7.15;6.32;;;;;;;;;;6248004;23;20122;-73
2022/02/04 21:44:55;;;;;;;8.55;6.07;;;;;;;;;;6248781;23;20122;-72
2022/02/04 21:47:27;;;;;;;16.25;8.52;;;;;;;;;;6248869;23;20063;-72
2022/02/04 21:50:00;;;;;;;5.97;5.35;;;;;;;;;;6222271;23;19995;-72
2022/02/04 21:52:26;;;;;;;15.20;9.60;;;;;;;;;;6221809;23;20000;-72
2022/02/04 21:54:52;;;;;;;16.83;8.63;;;;;;;;;;6248847;23;20057;-72
2022/02/04 21:57:18;;;;;;;6.57;6.00;;;;;;;;;;6248212;23;19996;-72
2022/02/04 21:59:44;;;;;;;7.97;7.30;;;;;;;;;;6248215;23;19988;-72
2022/02/04 22:02:10;;;;;;;6.85;6.20;;;;;;;;;;6248725;23;20003;-72
2022/02/04 22:04:36;;;;;;;7.00;6.40;;;;;;;;;;6222106;23;20351;-72
2022/02/04 22:07:02;;;;;;;11.75;9.98;;;;;;;;;;6248027;23;20000;-72
2022/02/04 22:09:40;;;;;;;5.07;4.78;;;;;;;;;;6248798;23;19991;-72
2022/02/04 22:12:42;;;;;;;8.27;7.57;;;;;;;;;;6248829;23;19996;-72